Time;durP1;ratioP1;P1;durP2;ratioP2;P2;SDS_P1;SDS_P2;PMS_P1;PMS_P2;Temp;Humidity;BMP_temperature;BMP_pressure;BME280_temperature;BME280_humidity;BME280_pressure;Samples;Min_cycle;Max_cycle;Signal;HPM_P1;HPM_P2
2022/07/16 00:03:37;;;;;;;4.32;1.48;;;16.80;99.90;;;;;;4931003;29;20621;-66
2022/07/16 00:06:02;;;;;;;3.67;1.50;;;16.80;99.90;;;;;;4914958;29;20703;-66
2022/07/16 00:08:28;;;;;;;4.93;1.40;;;16.90;99.90;;;;;;4914453;29;20403;-65
2022/07/16 00:10:53;;;;;;;2.42;1.20;;;16.80;99.90;;;;;;4916440;29;20846;-65
2022/07/16 00:13:19;;;;;;;4.13;1.10;;;16.80;99.90;;;;;;4946480;29;20414;-66
2022/07/16 00:15:45;;;;;;;2.60;1.30;;;16.70;99.90;;;;;;4913529;29;20451;-66
2022/07/16 00:20:55;;;;;;;3.53;1.60;;;16.50;99.90;;;;;;4931043;29;20719;-66
2022/07/16 00:23:20;;;;;;;3.83;1.30;;;16.50;99.90;;;;;;4914412;29;20872;-66
2022/07/16 00:25:46;;;;;;;3.13;1.60;;;16.60;99.90;;;;;;4913041;29;21003;-66
2022/07/16 00:28:11;;;;;;;3.80;1.57;;;16.70;99.90;;;;;;4914421;29;20404;-66
2022/07/16 00:30:37;;;;;;;3.63;1.90;;;16.60;99.90;;;;;;4914714;29;20687;-66
2022/07/16 00:33:02;;;;;;;4.57;1.90;;;16.50;99.90;;;;;;4915358;29;20506;-66
2022/07/16 00:35:28;;;;;;;2.77;1.63;;;16.40;99.90;;;;;;4932271;29;20407;-67
2022/07/16 00:37:54;;;;;;;4.05;2.20;;;16.40;99.90;;;;;;4915709;29;20399;-65
2022/07/16 00:40:20;;;;;;;3.35;1.83;;;16.20;99.90;;;;;;4916654;29;20720;-66
2022/07/16 00:42:46;;;;;;;5.47;1.90;;;16.10;99.90;;;;;;4915636;29;20462;-66
2022/07/16 00:45:11;;;;;;;4.88;2.00;;;16.00;99.90;;;;;;4931871;29;20466;-66
2022/07/16 00:47:37;;;;;;;6.10;1.90;;;15.90;99.90;;;;;;4914530;29;20406;-67
2022/07/16 00:50:03;;;;;;;4.75;2.03;;;15.80;99.90;;;;;;4914545;29;20425;-66
2022/07/16 00:52:29;;;;;;;4.00;2.15;;;15.90;99.90;;;;;;4917178;29;20408;-66
2022/07/16 00:54:54;;;;;;;3.53;1.90;;;15.80;99.90;;;;;;4918105;29;20680;-67
2022/07/16 00:57:20;;;;;;;3.25;1.98;;;15.70;99.90;;;;;;4917567;29;20503;-67
2022/07/16 00:59:46;;;;;;;4.07;2.20;;;15.70;99.90;;;;;;4916588;29;20475;-67
2022/07/16 01:02:11;;;;;;;4.40;2.00;;;15.70;99.90;;;;;;4918463;29;20452;-66
2022/07/16 01:04:37;;;;;;;4.25;2.17;;;15.70;99.90;;;;;;4916960;29;20736;-67
2022/07/16 01:07:03;;;;;;;2.50;1.80;;;15.70;99.90;;;;;;4919253;29;20407;-67
2022/07/16 01:09:32;;;;;;;4.57;2.22;;;15.70;99.90;;;;;;4934241;29;20533;-67
2022/07/16 01:11:58;;;;;;;2.72;2.00;;;15.60;99.90;;;;;;4916944;29;20438;-67
2022/07/16 01:14:24;;;;;;;4.10;2.35;;;15.60;99.90;;;;;;4917521;29;20664;-67
2022/07/16 01:16:50;;;;;;;6.00;2.50;;;15.60;99.90;;;;;;4916569;29;20771;-67
2022/07/16 01:19:16;;;;;;;4.43;2.40;;;15.60;99.90;;;;;;4917768;29;20502;-66
2022/07/16 01:21:44;;;;;;;3.83;2.50;;;15.70;99.90;;;;;;4917706;29;20435;-66
2022/07/16 01:24:10;;;;;;;4.17;2.33;;;15.70;99.90;;;;;;4917194;29;20395;-66
2022/07/16 01:26:36;;;;;;;4.57;2.50;;;15.60;99.90;;;;;;4933264;29;20661;-66
2022/07/16 01:29:02;;;;;;;5.77;2.60;;;15.50;99.90;;;;;;4918607;29;20462;-66
2022/07/16 01:31:28;;;;;;;3.92;2.42;;;15.60;99.90;;;;;;4935501;29;20400;-67
2022/07/16 01:36:41;;;;;;;5.70;2.65;;;15.50;99.90;;;;;;4935887;29;20418;-66
2022/07/16 01:39:06;;;;;;;4.70;3.00;;;15.40;99.90;;;;;;4920752;29;20470;-66
2022/07/16 01:41:32;;;;;;;3.67;2.70;;;15.40;99.90;;;;;;4937481;29;20768;-66
2022/07/16 01:43:58;;;;;;;3.37;2.80;;;15.40;99.90;;;;;;4922418;29;20415;-66
2022/07/16 01:46:23;;;;;;;4.57;2.70;;;15.30;99.90;;;;;;4920289;29;20407;-65
2022/07/16 01:48:49;;;;;;;4.47;2.83;;;15.30;99.90;;;;;;4920287;29;20403;-66
2022/07/16 01:51:15;;;;;;;4.33;2.83;;;15.30;99.90;;;;;;4936780;29;20722;-66
2022/07/16 01:53:41;;;;;;;3.45;2.80;;;15.40;99.90;;;;;;4921486;29;20415;-66
2022/07/16 01:56:07;;;;;;;7.00;3.20;;;15.40;99.90;;;;;;4920335;29;20505;-66
2022/07/16 01:58:33;;;;;;;3.80;2.80;;;15.30;99.90;;;;;;4950464;29;20402;-66
2022/07/16 02:00:58;;;;;;;5.00;3.20;;;15.20;99.90;;;;;;4919281;29;20418;-66
2022/07/16 02:03:24;;;;;;;3.50;2.42;;;15.20;99.90;;;;;;4936472;29;20403;-66
2022/07/16 02:05:49;;;;;;;5.90;3.13;;;15.30;99.90;;;;;;4919292;29;20399;-66
2022/07/16 02:08:15;;;;;;;6.20;3.10;;;15.20;99.90;;;;;;4918463;29;20644;-66
2022/07/16 02:10:41;;;;;;;4.15;3.00;;;15.20;99.90;;;;;;4917183;29;20439;-66
2022/07/16 02:13:07;;;;;;;4.03;2.90;;;15.20;99.90;;;;;;4934214;29;20796;-66
2022/07/16 02:15:33;;;;;;;6.43;2.95;;;15.20;99.90;;;;;;4933146;29;20890;-66
2022/07/16 02:17:58;;;;;;;4.93;2.90;;;15.20;99.90;;;;;;4932209;29;20565;-66
2022/07/16 02:20:26;;;;;;;3.17;2.70;;;15.20;99.90;;;;;;4914765;29;20736;-66
2022/07/16 02:22:56;;;;;;;3.63;2.60;;;15.20;99.90;;;;;;4915337;29;20403;-67
2022/07/16 02:25:22;;;;;;;5.30;3.10;;;15.20;99.90;;;;;;4916613;29;20482;-66
2022/07/16 02:28:06;;;;;;;5.43;3.20;;;15.20;99.90;;;;;;4933553;29;20759;-66
2022/07/16 02:30:36;;;;;;;5.63;3.10;;;15.20;99.90;;;;;;4917681;29;20403;-66
2022/07/16 02:33:02;;;;;;;5.32;2.88;;;15.20;99.90;;;;;;4918678;29;20396;-66
2022/07/16 02:35:28;;;;;;;5.35;3.03;;;15.20;99.90;;;;;;4937162;29;20838;-66
2022/07/16 02:37:53;;;;;;;4.22;2.78;;;15.20;99.90;;;;;;4917398;29;20399;-66
2022/07/16 02:40:19;;;;;;;7.10;3.27;;;15.10;99.90;;;;;;4934625;29;20501;-66
2022/07/16 02:42:44;;;;;;;4.83;2.90;;;15.20;99.90;;;;;;4917840;29;20462;-66
2022/07/16 02:45:11;;;;;;;4.95;3.03;;;15.20;99.90;;;;;;4918109;29;20403;-66
2022/07/16 02:47:37;;;;;;;4.10;2.72;;;15.20;99.90;;;;;;4916983;29;20400;-66
2022/07/16 02:50:04;;;;;;;5.97;2.67;;;15.20;99.90;;;;;;4918819;29;20740;-65
2022/07/16 02:52:29;;;;;;;3.45;2.72;;;15.20;99.90;;;;;;4951455;29;20406;-66
2022/07/16 02:54:55;;;;;;;3.03;2.20;;;15.30;99.90;;;;;;4920538;29;20415;-66
2022/07/16 02:57:20;;;;;;;2.85;2.55;;;15.20;99.90;;;;;;4921292;29;21020;-66
2022/07/16 02:59:46;;;;;;;4.87;2.47;;;15.30;99.90;;;;;;4921132;29;20407;-66
2022/07/16 03:02:12;;;;;;;4.57;2.50;;;15.30;99.90;;;;;;4921247;29;20402;-66
2022/07/16 03:04:37;;;;;;;3.90;2.42;;;15.20;99.90;;;;;;4919517;29;20391;-66
2022/07/16 03:07:03;;;;;;;3.87;2.03;;;15.20;99.90;;;;;;4918531;29;20736;-66
2022/07/16 03:09:29;;;;;;;3.38;2.15;;;15.20;99.90;;;;;;4950206;29;20407;-66
2022/07/16 03:11:56;;;;;;;3.83;1.88;;;15.20;99.90;;;;;;4918974;29;20407;-66
2022/07/16 03:14:22;;;;;;;3.22;2.05;;;15.30;99.90;;;;;;4918259;29;20410;-66
2022/07/16 03:16:48;;;;;;;2.83;1.70;;;15.30;99.90;;;;;;4916083;29;20454;-66
2022/07/16 03:19:14;;;;;;;2.38;1.67;;;15.30;99.90;;;;;;4933310;29;20506;-66
2022/07/16 03:21:39;;;;;;;4.93;1.67;;;15.20;99.90;;;;;;4918271;29;20460;-66
2022/07/16 03:24:05;;;;;;;2.90;1.50;;;15.20;99.90;;;;;;4920298;29;20407;-66
2022/07/16 03:26:31;;;;;;;3.58;1.50;;;15.20;99.90;;;;;;4919439;29;20869;-66
2022/07/16 03:28:56;;;;;;;3.08;1.77;;;15.20;99.90;;;;;;4920459;29;20403;-66
2022/07/16 03:31:23;;;;;;;3.33;1.47;;;15.20;99.90;;;;;;4920031;29;20724;-66
2022/07/16 03:33:49;;;;;;;3.15;1.42;;;15.20;99.90;;;;;;4936683;29;20388;-66
2022/07/16 03:36:14;;;;;;;4.90;1.60;;;15.20;99.90;;;;;;4919268;29;20522;-67
2022/07/16 03:41:24;;;;;;;3.47;1.60;;;15.20;99.90;;;;;;4934275;29;20405;-66
2022/07/16 03:47:11;;;;;;;3.67;1.55;;;15.10;99.90;;;;;;4937644;29;20378;-66
2022/07/16 03:49:37;;;;;;;3.78;1.50;;;15.20;99.90;;;;;;4920653;29;20490;-66
2022/07/16 03:52:02;;;;;;;2.50;1.33;;;15.20;99.90;;;;;;4917309;29;20391;-66
2022/07/16 03:54:28;;;;;;;3.27;1.57;;;15.20;99.90;;;;;;4933631;29;20688;-66
2022/07/16 03:56:54;;;;;;;2.88;1.50;;;15.20;99.90;;;;;;4917622;29;20403;-66
2022/07/16 03:59:19;;;;;;;4.18;1.83;;;15.10;99.90;;;;;;4918361;29;20556;-66
2022/07/16 04:01:45;;;;;;;3.40;1.50;;;15.20;99.90;;;;;;4917183;29;20451;-66
2022/07/16 04:04:10;;;;;;;3.90;1.50;;;15.20;99.90;;;;;;4950513;29;20410;-66
2022/07/16 04:06:36;;;;;;;2.42;1.25;;;15.20;99.90;;;;;;4918400;29;20410;-66
2022/07/16 04:09:02;;;;;;;4.53;1.60;;;15.20;99.90;;;;;;4934559;29;20404;-66
2022/07/16 04:11:27;;;;;;;4.28;1.48;;;15.20;99.90;;;;;;4917986;29;20411;-66
2022/07/16 04:13:53;;;;;;;3.63;1.33;;;15.20;99.90;;;;;;4915739;29;20396;-66
2022/07/16 04:16:19;;;;;;;3.67;1.60;;;15.20;99.90;;;;;;4914172;29;20473;-66
2022/07/16 04:18:45;;;;;;;2.80;1.50;;;15.20;99.90;;;;;;4913880;29;20661;-66
2022/07/16 04:21:10;;;;;;;2.83;1.35;;;15.20;99.90;;;;;;4912751;29;20553;-66
2022/07/16 04:23:36;;;;;;;4.67;1.80;;;15.20;99.90;;;;;;4928252;29;20790;-66
2022/07/16 04:26:02;;;;;;;4.15;1.40;;;15.20;99.90;;;;;;4911967;29;20490;-66
2022/07/16 04:28:28;;;;;;;2.70;1.60;;;15.20;99.90;;;;;;4914037;29;20407;-66
2022/07/16 04:30:54;;;;;;;3.50;1.40;;;15.20;99.90;;;;;;4913363;29;20818;-66
2022/07/16 04:33:20;;;;;;;4.07;1.50;;;15.20;99.90;;;;;;4947567;29;20395;-66
2022/07/16 04:35:48;;;;;;;6.07;1.57;;;15.20;99.90;;;;;;4933213;29;20442;-66
2022/07/16 04:38:15;;;;;;;2.85;1.63;;;15.20;99.90;;;;;;4919255;29;20486;-66
2022/07/16 04:40:40;;;;;;;2.85;1.27;;;15.30;99.90;;;;;;4921069;29;20418;-66
2022/07/16 04:43:06;;;;;;;3.95;1.65;;;15.20;99.90;;;;;;4921365;29;20402;-66
2022/07/16 04:45:32;;;;;;;4.23;1.50;;;15.20;99.90;;;;;;4920649;29;20418;-68
2022/07/16 04:47:57;;;;;;;3.30;1.60;;;15.20;99.90;;;;;;4919246;29;20696;-66
2022/07/16 04:50:23;;;;;;;3.33;1.70;;;15.10;99.90;;;;;;4915969;29;20435;-66
2022/07/16 04:52:48;;;;;;;4.55;1.60;;;15.10;99.90;;;;;;4914939;29;20442;-66
2022/07/16 04:55:14;;;;;;;2.53;1.60;;;15.20;99.90;;;;;;4946732;29;20453;-66
2022/07/16 04:57:40;;;;;;;4.13;1.65;;;15.20;99.90;;;;;;4916353;29;20403;-66
2022/07/16 05:00:06;;;;;;;4.47;1.63;;;15.20;99.90;;;;;;4931636;29;20474;-66
2022/07/16 05:05:19;;;;;;;4.55;1.45;;;15.30;99.90;;;;;;4931165;29;20527;-65
2022/07/16 05:07:46;;;;;;;3.92;1.60;;;15.30;99.90;;;;;;4915157;29;20478;-66
2022/07/16 05:10:11;;;;;;;4.47;1.80;;;15.20;99.90;;;;;;4932389;29;20410;-66
2022/07/16 05:12:37;;;;;;;3.83;1.67;;;15.30;99.90;;;;;;4913995;29;20411;-66
2022/07/16 05:15:03;;;;;;;3.00;1.45;;;15.30;99.90;;;;;;4932096;29;20450;-65
2022/07/16 05:17:35;;;;;;;3.83;1.70;;;15.20;99.90;;;;;;4916415;29;20406;-65
2022/07/16 05:20:04;;;;;;;5.53;1.70;;;15.20;99.90;;;;;;4918801;29;20834;-65
2022/07/16 05:22:31;;;;;;;4.45;1.90;;;15.20;99.90;;;;;;4919453;29;20391;-66
2022/07/16 05:24:57;;;;;;;4.22;1.50;;;15.30;99.90;;;;;;4916689;29;20441;-65
2022/07/16 05:27:22;;;;;;;4.97;1.70;;;15.30;99.90;;;;;;4916787;29;20658;-66
2022/07/16 05:29:48;;;;;;;3.47;1.70;;;15.40;99.90;;;;;;4916248;29;20415;-65
2022/07/16 05:32:13;;;;;;;4.05;2.03;;;15.30;99.90;;;;;;4916282;29;20396;-66
2022/07/16 05:34:39;;;;;;;3.63;1.57;;;15.30;99.90;;;;;;4915446;29;20451;-65
2022/07/16 05:37:04;;;;;;;3.47;1.37;;;15.30;99.90;;;;;;4914088;29;20498;-66
2022/07/16 05:39:30;;;;;;;3.78;1.60;;;15.30;99.90;;;;;;4929997;29;20399;-65
2022/07/16 05:41:56;;;;;;;3.72;1.65;;;15.40;99.90;;;;;;4912178;29;20433;-66
2022/07/16 05:44:27;;;;;;;3.63;1.60;;;15.40;99.90;;;;;;4929358;29;20426;-66
2022/07/16 05:47:27;;;;;;;3.50;1.65;;;15.40;99.90;;;;;;4912151;29;20661;-66
2022/07/16 05:50:05;;;;;;;2.95;1.30;;;15.30;99.90;;;;;;4914600;29;20388;-66
2022/07/16 05:52:31;;;;;;;4.93;1.30;;;15.50;99.90;;;;;;4945862;29;20449;-66
2022/07/16 05:55:15;;;;;;;4.93;1.40;;;15.50;99.90;;;;;;4933307;29;20526;-66
2022/07/16 05:57:41;;;;;;;4.45;1.27;;;15.50;99.90;;;;;;4933192;29;20430;-66
2022/07/16 06:00:09;;;;;;;3.75;1.25;;;15.50;99.90;;;;;;4918789;29;20432;-65
2022/07/16 06:02:35;;;;;;;3.33;1.33;;;15.50;99.90;;;;;;4933630;29;20608;-65
2022/07/16 06:05:01;;;;;;;5.80;1.50;;;15.50;99.90;;;;;;4917526;29;20882;-66
2022/07/16 06:07:26;;;;;;;3.23;1.50;;;15.60;99.90;;;;;;4917347;29;20418;-66
2022/07/16 06:09:52;;;;;;;5.05;1.15;;;15.50;99.90;;;;;;4916802;29;20460;-66
2022/07/16 06:12:17;;;;;;;2.80;1.10;;;15.50;99.90;;;;;;4918004;29;20404;-66
2022/07/16 06:14:43;;;;;;;2.73;1.30;;;15.60;99.90;;;;;;4918827;29;20438;-66
2022/07/16 06:17:08;;;;;;;3.13;1.20;;;15.60;99.90;;;;;;4919399;29;20398;-65
2022/07/16 06:19:34;;;;;;;3.67;1.27;;;15.60;99.90;;;;;;4917734;29;20764;-66
2022/07/16 06:22:00;;;;;;;5.82;1.30;;;15.60;99.90;;;;;;4946890;29;20396;-65
2022/07/16 06:24:26;;;;;;;4.30;1.33;;;15.60;99.90;;;;;;4931550;29;20426;-66
2022/07/16 06:26:54;;;;;;;4.20;1.20;;;15.50;99.90;;;;;;4931640;29;20411;-65
2022/07/16 06:29:20;;;;;;;2.92;1.17;;;15.50;99.90;;;;;;4929398;29;20396;-65
2022/07/16 06:31:46;;;;;;;3.67;1.30;;;15.50;99.90;;;;;;4913728;29;20499;-65
2022/07/16 06:34:12;;;;;;;4.68;1.50;;;15.60;99.90;;;;;;4918826;29;20392;-65
2022/07/16 06:36:37;;;;;;;3.13;0.98;;;15.60;99.90;;;;;;4919153;29;20412;-65
2022/07/16 06:39:03;;;;;;;3.90;1.30;;;15.70;99.90;;;;;;4911824;29;20454;-65
2022/07/16 06:41:29;;;;;;;4.00;1.57;;;15.80;99.90;;;;;;4928283;29;20661;-65
2022/07/16 06:43:55;;;;;;;3.90;1.30;;;15.80;99.90;;;;;;4909956;29;20475;-66
2022/07/16 06:46:24;;;;;;;2.73;1.03;;;15.80;99.90;;;;;;4911252;29;20608;-66
2022/07/16 06:48:49;;;;;;;3.05;0.90;;;15.90;99.90;;;;;;4912466;29;20408;-65
2022/07/16 06:51:15;;;;;;;3.40;1.20;;;15.90;99.90;;;;;;4912586;29;20431;-65
2022/07/16 06:53:43;;;;;;;7.37;1.57;;;16.00;99.90;;;;;;4913382;29;21001;-65
2022/07/16 06:56:09;;;;;;;3.17;1.02;;;16.00;99.90;;;;;;4948535;29;20453;-65
2022/07/16 06:58:38;;;;;;;2.85;1.10;;;16.10;99.90;;;;;;4932930;29;20506;-65
2022/07/16 07:01:04;;;;;;;8.80;1.50;;;16.20;99.90;;;;;;4915882;29;20391;-65
2022/07/16 07:04:04;;;;;;;4.43;1.40;;;16.10;99.90;;;;;;4917654;29;20466;-66
2022/07/16 07:07:10;;;;;;;5.17;1.40;;;16.20;99.90;;;;;;4935458;29;20779;-66
2022/07/16 07:09:35;;;;;;;4.50;1.30;;;16.20;99.90;;;;;;4950454;29;20408;-65
2022/07/16 07:12:01;;;;;;;6.07;1.20;;;16.30;99.90;;;;;;4918122;29;20419;-65
2022/07/16 07:14:27;;;;;;;8.27;2.00;;;16.40;99.90;;;;;;4917640;29;20862;-65
2022/07/16 07:16:52;;;;;;;4.10;1.23;;;16.40;99.90;;;;;;4918315;29;20391;-64
2022/07/16 07:19:18;;;;;;;6.47;1.37;;;16.40;99.90;;;;;;4933715;29;20420;-64
2022/07/16 07:21:43;;;;;;;3.75;1.10;;;16.50;99.90;;;;;;4917493;29;20388;-65
2022/07/16 07:24:09;;;;;;;4.27;1.33;;;16.50;99.90;;;;;;4916418;29;20445;-64
2022/07/16 07:26:34;;;;;;;4.77;1.13;;;16.60;99.90;;;;;;4912944;29;20465;-65
2022/07/16 07:29:00;;;;;;;4.68;1.10;;;16.60;99.90;;;;;;4930272;29;20511;-65
2022/07/16 07:31:25;;;;;;;6.27;1.40;;;16.50;99.90;;;;;;4914715;29;20403;-65
2022/07/16 07:33:51;;;;;;;4.00;1.10;;;16.50;99.90;;;;;;4914996;29;20484;-65
2022/07/16 07:36:16;;;;;;;5.90;1.20;;;16.50;99.90;;;;;;4914597;29;20715;-65
2022/07/16 07:38:42;;;;;;;5.05;1.23;;;16.40;99.90;;;;;;4911477;29;20391;-65
2022/07/16 07:41:09;;;;;;;3.92;1.50;;;16.40;99.90;;;;;;4909540;29;20410;-65
2022/07/16 07:43:34;;;;;;;3.95;1.10;;;16.40;99.90;;;;;;4909626;29;20429;-65
2022/07/16 07:46:00;;;;;;;4.13;1.50;;;16.30;99.90;;;;;;4912212;29;20427;-65
2022/07/16 07:48:25;;;;;;;4.95;1.40;;;16.20;99.90;;;;;;4909238;29;20694;-65
2022/07/16 07:50:51;;;;;;;7.37;1.83;;;16.40;99.90;;;;;;4907685;29;20478;-66
2022/07/16 07:53:16;;;;;;;6.15;1.48;;;16.40;99.90;;;;;;4905627;29;20458;-65
2022/07/16 07:55:42;;;;;;;6.43;1.57;;;16.40;99.90;;;;;;4924110;29;20665;-65
2022/07/16 07:58:08;;;;;;;5.17;1.40;;;16.50;99.90;;;;;;4909073;29;20420;-65
2022/07/16 08:00:33;;;;;;;4.78;1.40;;;16.60;99.90;;;;;;4908625;29;20403;-66
2022/07/16 08:02:59;;;;;;;4.30;1.40;;;16.70;99.90;;;;;;4924777;29;20744;-65
2022/07/16 08:05:25;;;;;;;5.47;1.53;;;16.90;99.90;;;;;;4907179;29;20406;-65
2022/07/16 08:07:51;;;;;;;5.82;1.52;;;16.90;99.90;;;;;;4905387;29;20498;-65
2022/07/16 08:10:17;;;;;;;4.47;1.35;;;16.70;99.90;;;;;;4918537;29;20781;-65
2022/07/16 08:12:43;;;;;;;5.55;1.38;;;16.50;99.90;;;;;;4905949;29;20641;-65
2022/07/16 08:15:10;;;;;;;3.95;1.38;;;16.60;99.90;;;;;;4909495;29;20717;-66
2022/07/16 08:17:36;;;;;;;5.13;1.70;;;16.60;99.90;;;;;;4907743;29;20629;-65
2022/07/16 08:20:05;;;;;;;5.65;1.13;;;16.60;99.90;;;;;;4908543;29;20538;-66
2022/07/16 08:22:30;;;;;;;5.13;1.50;;;16.50;99.90;;;;;;4907045;29;20470;-65
2022/07/16 08:27:40;;;;;;;5.78;1.58;;;16.60;99.90;;;;;;4925911;29;20418;-65
2022/07/16 08:30:06;;;;;;;7.65;1.80;;;16.90;99.90;;;;;;4928564;29;20494;-65
2022/07/16 08:32:32;;;;;;;5.55;1.30;;;17.00;99.90;;;;;;4929056;29;20402;-65
2022/07/16 08:34:57;;;;;;;4.18;1.15;;;17.10;99.90;;;;;;4924886;29;20775;-65
2022/07/16 08:37:41;;;;;;;4.57;1.03;;;17.20;99.90;;;;;;4905880;29;20395;-65
2022/07/16 08:40:10;;;;;;;6.75;1.77;;;17.20;99.90;;;;;;4905667;29;21026;-65
2022/07/16 08:42:37;;;;;;;4.03;1.20;;;17.20;99.90;;;;;;4908167;29;20407;-65
2022/07/16 08:45:05;;;;;;;4.85;1.33;;;17.10;99.90;;;;;;4924588;29;21081;-66
2022/07/16 08:47:32;;;;;;;4.25;1.25;;;17.00;99.90;;;;;;4908953;29;20724;-65
2022/07/16 08:50:04;;;;;;;4.45;1.00;;;17.10;99.90;;;;;;4910710;29;20837;-65
2022/07/16 08:52:30;;;;;;;3.83;1.40;;;17.20;99.90;;;;;;4912876;29;20820;-65
2022/07/16 08:54:57;;;;;;;4.40;1.20;;;17.30;99.90;;;;;;4912125;29;20701;-66
2022/07/16 08:57:24;;;;;;;4.85;1.20;;;17.30;99.90;;;;;;4913623;29;20403;-65
2022/07/16 08:59:51;;;;;;;3.33;0.88;;;17.30;99.90;;;;;;4911520;29;20392;-65
2022/07/16 09:02:17;;;;;;;4.85;1.23;;;17.30;99.90;;;;;;4911543;29;20403;-64
2022/07/16 09:04:42;;;;;;;4.47;1.27;;;17.20;99.90;;;;;;4929339;29;20391;-66
2022/07/16 09:07:18;;;;;;;4.05;1.13;;;17.20;99.90;;;;;;4910944;29;20473;-66
2022/07/16 09:09:44;;;;;;;7.18;1.20;;;17.30;99.90;;;;;;4932659;29;20453;-66
2022/07/16 09:12:11;;;;;;;5.18;1.23;;;17.30;99.90;;;;;;4913686;29;20453;-66
2022/07/16 09:14:38;;;;;;;5.03;1.23;;;17.30;99.90;;;;;;4910559;29;20641;-66
2022/07/16 09:17:03;;;;;;;3.33;1.23;;;17.50;99.90;;;;;;4929356;29;20418;-66
2022/07/16 09:19:29;;;;;;;3.08;1.00;;;17.60;99.90;;;;;;4914585;29;20424;-66
2022/07/16 09:22:06;;;;;;;3.60;1.33;;;17.70;99.90;;;;;;4916607;29;20474;-66
2022/07/16 09:24:42;;;;;;;4.10;1.23;;;17.70;99.90;;;;;;4932826;29;20402;-65
2022/07/16 09:27:20;;;;;;;4.15;1.23;;;17.80;99.90;;;;;;4933582;29;20411;-65
2022/07/16 09:29:51;;;;;;;3.45;1.10;;;17.70;99.90;;;;;;4933877;29;20395;-66
2022/07/16 09:32:39;;;;;;;4.82;1.20;;;17.60;99.90;;;;;;4918035;29;20506;-65
2022/07/16 09:35:13;;;;;;;5.03;1.10;;;17.70;99.90;;;;;;4918962;29;20420;-65
2022/07/16 09:37:47;;;;;;;2.95;1.10;;;17.60;99.90;;;;;;4910635;29;20491;-65
2022/07/16 09:40:15;;;;;;;2.95;1.20;;;17.50;99.90;;;;;;4910735;29;20806;-65
2022/07/16 09:42:41;;;;;;;3.53;1.20;;;17.60;99.90;;;;;;4911961;29;20426;-66
2022/07/16 09:45:18;;;;;;;3.53;1.30;;;17.70;99.90;;;;;;4911006;29;20668;-65
2022/07/16 09:47:43;;;;;;;6.38;1.30;;;17.70;99.90;;;;;;4910200;29;20632;-66
2022/07/16 09:50:09;;;;;;;3.60;1.10;;;17.80;99.90;;;;;;4908840;29;20407;-65
2022/07/16 09:52:35;;;;;;;6.77;1.70;;;18.00;99.90;;;;;;4907609;29;20700;-66
2022/07/16 09:55:01;;;;;;;2.90;1.30;;;17.80;99.90;;;;;;4908455;29;20477;-65
2022/07/16 09:57:28;;;;;;;4.30;1.70;;;17.90;99.90;;;;;;4927257;29;20391;-65
2022/07/16 09:59:55;;;;;;;5.63;1.52;;;18.00;99.90;;;;;;4909642;29;20759;-65
2022/07/16 10:02:21;;;;;;;6.25;1.38;;;18.00;99.90;;;;;;4908972;29;20403;-66
2022/07/16 10:04:46;;;;;;;5.82;1.73;;;17.90;99.90;;;;;;4906559;29;20439;-66
2022/07/16 10:07:12;;;;;;;4.57;1.30;;;17.90;99.90;;;;;;4922783;29;20552;-66
2022/07/16 10:09:38;;;;;;;4.10;1.20;;;17.90;99.90;;;;;;4907398;29;20450;-66
2022/07/16 10:12:15;;;;;;;4.30;1.10;;;17.90;99.90;;;;;;4906509;29;20725;-67
2022/07/16 10:14:51;;;;;;;8.10;2.10;;;18.10;99.90;;;;;;4909953;29;20403;-66
2022/07/16 10:17:20;;;;;;;8.40;1.75;;;18.00;99.90;;;;;;4909228;29;20407;-66
2022/07/16 10:20:00;;;;;;;7.53;1.80;;;17.70;99.90;;;;;;4906819;29;20521;-66
2022/07/16 10:22:35;;;;;;;4.47;1.50;;;17.30;99.90;;;;;;4924073;29;20396;-66
2022/07/16 10:25:17;;;;;;;8.50;1.83;;;17.20;99.90;;;;;;4907476;29;20392;-66
2022/07/16 10:27:43;;;;;;;5.93;1.75;;;17.30;99.90;;;;;;4908990;29;20792;-66
2022/07/16 10:30:15;;;;;;;7.07;1.83;;;17.30;99.90;;;;;;4909563;29;20824;-66
2022/07/16 10:33:10;;;;;;;5.80;1.52;;;17.40;99.90;;;;;;4908132;29;20435;-66
2022/07/16 10:35:44;;;;;;;5.22;1.52;;;17.60;99.90;;;;;;4904817;29;20700;-66
2022/07/16 10:38:13;;;;;;;5.65;1.52;;;17.60;99.90;;;;;;4907527;29;20907;-66
2022/07/16 10:40:42;;;;;;;4.80;1.45;;;17.80;99.90;;;;;;4906461;29;20387;-66
2022/07/16 10:43:21;;;;;;;5.57;1.40;;;18.00;99.90;;;;;;4908352;29;20805;-66
2022/07/16 10:45:58;;;;;;;7.65;1.70;;;18.10;99.90;;;;;;4908136;29;20615;-66
2022/07/16 10:48:26;;;;;;;5.10;1.17;;;18.20;99.90;;;;;;4925533;29;20497;-66
2022/07/16 10:51:18;;;;;;;6.03;1.77;;;18.10;99.90;;;;;;4924580;29;20856;-66
2022/07/16 10:53:59;;;;;;;7.10;1.63;;;18.10;99.90;;;;;;4909206;29;20799;-66
2022/07/16 10:56:38;;;;;;;5.97;1.73;;;18.10;99.90;;;;;;4923223;29;20933;-66
2022/07/16 10:59:07;;;;;;;4.72;1.30;;;18.20;99.90;;;;;;4905874;29;20430;-66
2022/07/16 11:01:35;;;;;;;5.97;1.83;;;18.30;99.90;;;;;;4905769;29;20391;-66
2022/07/16 11:04:02;;;;;;;4.82;1.52;;;18.40;99.90;;;;;;4901391;29;20482;-66
2022/07/16 11:06:29;;;;;;;8.43;1.93;;;18.30;99.90;;;;;;4899762;29;20391;-66
2022/07/16 11:08:55;;;;;;;7.05;2.13;;;18.20;99.90;;;;;;4897260;29;20399;-66
2022/07/16 11:11:23;;;;;;;6.63;1.80;;;18.20;99.90;;;;;;4893450;29;20387;-66
2022/07/16 11:13:52;;;;;;;4.75;1.50;;;18.20;99.90;;;;;;4909852;29;20850;-66
2022/07/16 11:16:18;;;;;;;6.70;1.70;;;18.10;99.90;;;;;;4891467;29;20415;-66
2022/07/16 11:18:43;;;;;;;6.00;2.15;;;18.00;99.90;;;;;;4774428;29;3480830;-66
2022/07/16 11:21:09;;;;;;;8.93;2.00;;;18.00;99.90;;;;;;4894895;29;20606;-66
2022/07/16 11:23:48;;;;;;;5.93;2.20;;;18.20;99.90;;;;;;4912935;29;20658;-66
2022/07/16 11:26:14;;;;;;;5.75;2.20;;;18.30;99.90;;;;;;4914068;29;20550;-67
2022/07/16 11:29:09;;;;;;;5.82;1.80;;;18.50;99.90;;;;;;4896221;29;20412;-64
2022/07/16 11:31:36;;;;;;;4.07;1.52;;;18.50;99.90;;;;;;4889590;29;20511;-64
2022/07/16 11:34:03;;;;;;;7.05;1.85;;;18.30;99.90;;;;;;4899590;29;20958;-64
2022/07/16 11:36:34;;;;;;;4.70;1.55;;;18.20;99.90;;;;;;4898301;29;20472;-66
2022/07/16 11:39:02;;;;;;;6.30;1.73;;;18.10;99.90;;;;;;4915726;29;20399;-65
2022/07/16 11:41:28;;;;;;;5.13;1.37;;;18.10;99.90;;;;;;4896296;29;20478;-65
2022/07/16 11:43:55;;;;;;;4.93;1.27;;;18.20;99.90;;;;;;4900127;29;20391;-65
2022/07/16 11:46:23;;;;;;;3.33;1.15;;;18.40;99.90;;;;;;4916033;29;20767;-65
2022/07/16 11:48:50;;;;;;;4.82;1.40;;;18.40;99.90;;;;;;4915894;29;20430;-65
2022/07/16 11:51:15;;;;;;;4.50;1.50;;;18.70;99.90;;;;;;4901005;29;20423;-65
2022/07/16 11:53:41;;;;;;;3.28;1.33;;;19.00;99.90;;;;;;4903721;29;20392;-68
2022/07/16 11:56:07;;;;;;;6.00;1.87;;;19.00;99.90;;;;;;4920543;29;20816;-65
2022/07/16 11:58:33;;;;;;;4.27;1.43;;;18.90;99.90;;;;;;4902811;29;20387;-65
2022/07/16 12:00:58;;;;;;;3.93;1.37;;;19.00;99.90;;;;;;4904832;29;20399;-65
2022/07/16 12:03:24;;;;;;;4.27;1.50;;;19.20;99.90;;;;;;4905402;29;20414;-65
2022/07/16 12:06:06;;;;;;;5.63;1.63;;;19.30;99.90;;;;;;4922596;29;20724;-65
2022/07/16 12:08:33;;;;;;;3.13;1.17;;;19.10;99.90;;;;;;4906947;29;20647;-65
2022/07/16 12:11:19;;;;;;;4.55;1.45;;;18.90;99.90;;;;;;4908956;29;20596;-65
2022/07/16 12:13:52;;;;;;;4.87;1.30;;;18.90;99.90;;;;;;4907939;29;20482;-65
2022/07/16 12:16:19;;;;;;;4.07;1.30;;;18.70;99.90;;;;;;4909061;29;20470;-65
2022/07/16 12:19:01;;;;;;;7.15;1.40;;;18.80;99.90;;;;;;4906859;29;20451;-66
2022/07/16 12:21:29;;;;;;;6.38;1.35;;;18.90;99.90;;;;;;4907896;29;20399;-65
2022/07/16 12:23:55;;;;;;;4.57;1.40;;;18.90;99.90;;;;;;4908118;29;20630;-65
2022/07/16 12:26:35;;;;;;;3.85;1.48;;;19.10;99.90;;;;;;4907770;29;20486;-65
2022/07/16 12:29:04;;;;;;;3.38;1.38;;;19.60;99.90;;;;;;4904942;29;20410;-65
2022/07/16 12:31:31;;;;;;;4.22;1.33;;;19.80;99.90;;;;;;4922104;29;20431;-65
2022/07/16 12:33:59;;;;;;;6.25;1.75;;;19.70;99.90;;;;;;4905246;29;20887;-65
2022/07/16 12:36:33;;;;;;;6.07;1.60;;;19.50;99.90;;;;;;4905020;29;20748;-65
2022/07/16 12:39:04;;;;;;;5.45;1.40;;;19.40;99.90;;;;;;4902236;29;20962;-65
2022/07/16 12:41:40;;;;;;;7.65;1.60;;;19.60;99.90;;;;;;4902924;29;20454;-65
2022/07/16 12:44:12;;;;;;;8.73;1.80;;;19.40;99.90;;;;;;4903824;29;20399;-65
2022/07/16 12:46:38;;;;;;;4.18;1.60;;;19.40;99.90;;;;;;4903184;29;20434;-65
2022/07/16 12:49:06;;;;;;;3.70;1.35;;;19.50;99.90;;;;;;4903710;29;20414;-65
2022/07/16 12:51:37;;;;;;;6.85;1.55;;;19.60;99.90;;;;;;4903051;29;20391;-65
2022/07/16 12:54:03;;;;;;;5.25;1.60;;;19.20;99.90;;;;;;4907066;29;20470;-66
2022/07/16 12:59:15;;;;;;;3.50;1.50;;;19.60;99.90;;;;;;4921286;29;20745;-65
2022/07/16 13:01:42;;;;;;;4.88;1.67;;;19.70;99.90;;;;;;4924087;29;20593;-66
2022/07/16 13:04:08;;;;;;;5.20;1.50;;;19.50;99.90;;;;;;4906522;29;20418;-66
2022/07/16 13:06:34;;;;;;;4.70;1.20;;;19.50;99.90;;;;;;4924278;29;20585;-66
2022/07/16 13:09:00;;;;;;;5.43;1.40;;;19.40;99.90;;;;;;4907703;29;20403;-65
2022/07/16 13:11:27;;;;;;;4.82;1.50;;;19.80;99.90;;;;;;4925573;29;20399;-66
2022/07/16 13:13:54;;;;;;;3.97;1.50;;;20.00;99.90;;;;;;4908034;29;20391;-65